Time;durP1;ratioP1;P1;durP2;ratioP2;P2;SDS_P1;SDS_P2;PMS_P1;PMS_P2;Temp;Humidity;BMP_temperature;BMP_pressure;BME280_temperature;BME280_humidity;BME280_pressure;Samples;Min_cycle;Max_cycle;Signal;HPM_P1;HPM_P2
2022/02/04 00:21:51;;;;;;;11.02;3.67;;;;;;;10.79;80.60;100804.38;5027541;28;20049;-76
2022/02/04 00:24:19;;;;;;;11.07;4.03;;;;;;;10.79;80.59;100815.84;5027439;28;20103;-75
2022/02/04 00:26:52;;;;;;;13.93;4.05;;;;;;;10.82;80.78;100835.25;5010796;28;20059;-76
2022/02/04 00:29:25;;;;;;;10.15;3.45;;;;;;;10.81;80.47;100828.19;5042918;28;20053;-76
2022/02/04 00:31:56;;;;;;;9.63;3.33;;;;;;;10.78;80.96;100819.34;5046527;28;20635;-76
2022/02/04 00:34:25;;;;;;;9.07;3.25;;;;;;;10.74;81.09;100816.63;5062326;28;20052;-76
2022/02/04 00:37:05;;;;;;;11.63;3.47;;;;;;;10.74;81.29;100833.38;5052001;28;20051;-75
2022/02/04 00:39:41;;;;;;;8.43;3.15;;;;;;;10.74;81.20;100829.84;5054376;28;20037;-75
2022/02/04 00:42:11;;;;;;;11.98;4.45;;;;;;;10.75;80.94;100823.69;5042352;28;20528;-75
2022/02/04 00:44:41;;;;;;;5.75;2.60;;;;;;;10.79;81.15;100833.44;5047063;28;20495;-75
2022/02/04 00:47:13;;;;;;;7.20;2.63;;;;;;;10.79;80.82;100834.31;5046833;28;20049;-76
2022/02/04 00:49:56;;;;;;;7.32;2.25;;;;;;;10.80;80.56;100837.84;5028791;28;20092;-75
2022/02/04 00:52:34;;;;;;;11.75;3.58;;;;;;;10.81;80.23;100836.09;5050943;28;20051;-75
2022/02/04 00:55:17;;;;;;;8.88;2.97;;;;;;;10.79;80.18;100844.88;5046595;28;20056;-75
2022/02/04 00:57:52;;;;;;;7.25;2.78;;;;;;;10.80;80.21;100864.25;5051198;28;20042;-75
2022/02/04 01:27:54;;;;;;;17.02;4.22;;;;;;;10.37;82.38;100908.38;5044521;28;20045;-76
2022/02/04 01:30:28;;;;;;;28.55;9.57;;;;;;;10.39;82.37;100913.69;5026727;28;20120;-75
2022/02/04 01:32:56;;;;;;;11.98;5.13;;;;;;;10.37;82.39;100916.28;5048370;28;20041;-75
2022/02/04 01:35:23;;;;;;;8.27;2.95;;;;;;;10.35;82.45;100907.47;5030916;28;20041;-75
2022/02/04 01:37:51;;;;;;;9.98;4.05;;;;;;;10.32;82.51;100909.16;5030917;28;20057;-75
2022/02/04 01:40:20;;;;;;;11.65;3.83;;;;;;;10.33;82.89;100896.00;5060961;28;20123;-75
2022/02/04 01:42:48;;;;;;;10.80;4.22;;;;;;;10.31;82.89;100916.16;5049842;28;20066;-75
2022/02/04 01:45:15;;;;;;;14.32;3.90;;;;;;;10.31;83.06;100915.28;5050056;28;20052;-74
2022/02/04 01:47:56;;;;;;;11.95;3.92;;;;;;;10.32;82.85;100915.31;5064835;28;20044;-75
2022/02/04 01:50:24;;;;;;;8.10;3.08;;;;;;;10.33;82.82;100914.47;5029629;28;20047;-74
2022/02/04 01:52:52;;;;;;;15.85;4.78;;;;;;;10.35;82.54;100915.38;5031180;28;20037;-75
2022/02/04 01:55:23;;;;;;;14.43;4.78;;;;;;;10.35;82.33;100920.66;5029648;28;20045;-75
2022/02/04 01:57:50;;;;;;;8.48;2.60;;;;;;;10.37;82.40;100921.56;5029804;28;20041;-76
2022/02/04 02:00:19;;;;;;;7.25;2.47;;;;;;;10.38;81.94;100912.78;5031156;28;20125;-76
2022/02/04 02:02:47;;;;;;;7.72;3.22;;;;;;;10.38;81.67;100925.97;5033983;28;20034;-76
2022/02/04 02:05:14;;;;;;;16.95;3.78;;;;;;;10.41;81.64;100908.44;5030361;28;20454;-75
2022/02/04 02:07:47;;;;;;;14.75;5.07;;;;;;;10.42;80.98;100920.78;5039350;28;20041;-76
2022/02/04 02:10:17;;;;;;;13.55;3.58;;;;;;;10.44;81.05;100926.94;5029626;28;20069;-76
2022/02/04 02:12:56;;;;;;;12.32;3.92;;;;;;;10.48;80.89;100928.81;5029481;28;20049;-76
2022/02/04 02:15:30;;;;;;;13.45;3.28;;;;;;;10.52;80.94;100933.28;5048727;28;20049;-76
2022/02/04 02:45:50;;;;;;;9.13;1.98;;;;;;;10.25;81.27;100970.56;5057863;28;20037;-79
2022/02/04 02:48:35;;;;;;;10.07;2.10;;;;;;;10.26;80.72;100960.06;5049434;28;20123;-79
2022/02/04 02:51:31;;;;;;;12.55;2.95;;;;;;;10.31;80.41;100984.78;5050558;28;20316;-78
2022/02/04 02:54:13;;;;;;;6.43;1.95;;;;;;;10.31;80.20;100984.78;5040633;28;20123;-78
2022/02/04 02:59:47;;;;;;;8.35;2.38;;;;;;;10.35;79.10;100976.09;5047268;28;20033;-77
2022/02/04 03:02:14;;;;;;;10.27;2.33;;;;;;;10.38;79.32;101004.25;5047736;28;20040;-78
2022/02/04 03:04:42;;;;;;;8.75;1.73;;;;;;;10.35;79.39;100993.66;5050737;28;20828;-78
2022/02/04 03:07:09;;;;;;;7.85;2.00;;;;;;;10.28;79.51;100989.13;5048624;28;20048;-77
2022/02/04 03:09:37;;;;;;;25.60;2.40;;;;;;;10.25;79.74;101002.22;5049966;28;20099;-78
2022/02/04 03:12:08;;;;;;;6.47;3.00;;;;;;;10.25;79.58;100992.56;5049028;28;20045;-78
2022/02/04 03:14:36;;;;;;;5.28;1.63;;;;;;;10.22;78.82;100984.59;5050328;28;20136;-79
2022/02/04 03:17:07;;;;;;;8.77;1.70;;;;;;;10.18;78.14;101001.22;5052319;28;20041;-78
2022/02/04 03:19:34;;;;;;;10.48;1.83;;;;;;;10.17;78.05;101027.59;5042806;28;20503;-78
2022/02/04 03:22:07;;;;;;;5.80;1.75;;;;;;;10.14;78.28;101032.75;5049689;28;20047;-78
2022/02/04 03:24:35;;;;;;;7.90;1.50;;;;;;;10.13;78.66;101036.22;5049524;28;20065;-77
2022/02/04 03:27:08;;;;;;;10.80;2.42;;;;;;;10.14;79.09;101036.28;5048184;28;20404;-78
2022/02/04 03:29:55;;;;;;;7.78;2.42;;;;;;;10.10;78.79;101037.06;5049001;28;20059;-77
2022/02/04 03:32:23;;;;;;;7.25;2.30;;;;;;;10.07;79.14;101058.09;5053145;28;20033;-77
2022/02/04 03:34:51;;;;;;;4.93;1.83;;;;;;;10.10;79.40;101052.00;5064390;28;20484;-77
2022/02/04 03:37:19;;;;;;;8.02;2.92;;;;;;;10.12;79.52;101045.88;5049291;28;20063;-77
2022/02/04 03:39:47;;;;;;;13.00;2.80;;;;;;;10.16;79.29;101047.75;5049158;28;20076;-77
2022/02/04 03:42:15;;;;;;;8.00;2.05;;;;;;;10.18;79.19;101050.44;5049288;28;20041;-77
2022/02/04 03:44:44;;;;;;;7.90;1.52;;;;;;;10.21;79.57;101056.69;5049854;28;20484;-77
2022/02/04 03:47:12;;;;;;;14.35;1.77;;;;;;;10.20;79.57;101061.94;5046670;28;20049;-77
2022/02/04 03:49:39;;;;;;;5.60;2.33;;;;;;;10.19;79.55;101058.41;5060784;28;20530;-78
2022/02/04 03:52:08;;;;;;;5.88;1.90;;;;;;;10.16;79.30;101053.03;5064473;28;20053;-77
2022/02/04 03:54:36;;;;;;;11.18;2.65;;;;;;;10.13;78.90;101066.13;5048463;28;20045;-77
2022/02/04 03:57:04;;;;;;;4.25;1.90;;;;;;;10.12;78.95;101072.28;5003616;28;20041;-77
2022/02/04 03:59:31;;;;;;;3.53;1.38;;;;;;;10.12;78.78;101084.56;5028826;28;20049;-76
2022/02/04 04:02:00;;;;;;;8.35;1.95;;;;;;;10.13;78.90;101096.91;5078119;28;20072;-77
2022/02/04 04:04:32;;;;;;;6.05;1.65;;;;;;;10.13;78.88;101099.53;5042970;28;20068;-77
2022/02/04 04:07:00;;;;;;;3.92;1.33;;;;;;;10.10;78.86;101097.75;5034463;28;20563;-77
2022/02/04 04:09:29;;;;;;;7.85;1.88;;;;;;;10.07;79.40;101112.59;5030009;28;20155;-77
2022/02/04 04:11:57;;;;;;;8.85;1.92;;;;;;;10.00;79.92;101108.91;5031488;28;20692;-78
2022/02/04 04:14:25;;;;;;;10.75;2.33;;;;;;;9.93;80.21;101121.06;5028437;28;20401;-78
2022/02/04 04:16:53;;;;;;;11.52;2.42;;;;;;;9.81;80.72;101122.53;5026936;28;20132;-78
2022/02/04 04:19:22;;;;;;;5.43;2.15;;;;;;;9.69;81.06;101130.13;5027090;28;20084;-78
2022/02/04 04:21:50;;;;;;;6.45;2.40;;;;;;;9.63;81.30;101119.44;5023833;28;20061;-75
2022/02/04 04:24:17;;;;;;;4.97;2.03;;;;;;;9.62;81.61;101125.56;5036976;28;20069;-76
2022/02/04 04:26:45;;;;;;;14.65;4.93;;;;;;;9.67;81.97;101145.00;5042876;28;20049;-76
2022/02/04 04:29:13;;;;;;;12.57;3.55;;;;;;;9.69;82.28;101130.13;5055352;28;20044;-77
2022/02/04 04:31:41;;;;;;;11.15;3.55;;;;;;;9.66;82.37;101159.03;5047574;28;20045;-76
2022/02/04 04:34:09;;;;;;;12.30;2.67;;;;;;;9.67;82.30;101163.47;5048073;28;20385;-76
2022/02/04 04:36:38;;;;;;;10.50;2.58;;;;;;;9.62;82.46;101163.34;5047486;28;20037;-76
2022/02/04 04:39:09;;;;;;;10.60;2.38;;;;;;;9.59;82.72;101163.25;5047977;28;20048;-76
2022/02/04 04:41:50;;;;;;;9.32;2.63;;;;;;;9.53;82.80;101190.34;5062930;28;20806;-76
2022/02/04 05:28:35;;;;;;;9.57;2.88;;;;;;;9.36;83.92;101268.06;5051094;28;19921;-76
2022/02/04 05:31:04;;;;;;;10.48;3.65;;;;;;;9.38;84.24;101276.00;5050612;28;20103;-77
2022/02/04 05:33:32;;;;;;;16.15;4.28;;;;;;;9.37;84.15;101272.47;5049644;28;20069;-77
2022/02/04 05:36:03;;;;;;;14.68;3.10;;;;;;;9.35;84.23;101258.38;5067303;28;20033;-77
2022/02/04 05:38:32;;;;;;;9.88;5.15;;;;;;;9.35;83.84;101239.94;5051698;28;20060;-77
2022/02/04 05:41:01;;;;;;;12.82;4.25;;;;;;;9.35;83.43;101261.00;5055546;28;21791;-77
2022/02/04 05:43:32;;;;;;;11.32;3.40;;;;;;;9.41;83.53;101263.81;5050852;28;20052;-77
2022/02/04 05:46:03;;;;;;;10.95;3.00;;;;;;;9.45;83.40;101263.03;5054737;28;20056;-77
2022/02/04 05:48:34;;;;;;;7.93;2.60;;;;;;;9.44;82.77;101269.19;5050623;28;20044;-76
2022/02/04 05:53:53;;;;;;;8.52;2.20;;;;;;;9.29;82.96;101271.38;5038101;28;20044;-77
2022/02/04 05:56:31;;;;;;;7.95;2.67;;;;;;;9.25;82.78;101272.13;5037022;28;20444;-78
2022/02/04 05:59:06;;;;;;;9.88;3.25;;;;;;;9.27;82.94;101291.50;5037889;28;20044;-77
2022/02/04 06:04:36;;;;;;;7.68;2.33;;;;;;;9.34;82.78;101298.72;5036003;28;20029;-78
2022/02/04 06:23:42;;;;;;;;;;;;;;;9.45;80.17;101321.00;5058418;28;20041;-79
2022/02/04 06:26:10;;;;;;;7.32;2.33;;;;;;;9.46;79.87;101316.63;5039737;28;19927;-77
2022/02/04 06:28:41;;;;;;;9.85;2.88;;;;;;;9.51;79.43;101331.75;5042208;28;20041;-78
2022/02/04 06:31:09;;;;;;;10.68;3.85;;;;;;;9.58;79.64;101335.44;5065807;28;20128;-79
2022/02/04 06:33:37;;;;;;;10.68;3.83;;;;;;;9.66;79.41;101347.09;5048669;28;20051;-79
2022/02/04 06:36:06;;;;;;;9.73;3.08;;;;;;;9.69;79.05;101343.66;5082698;28;20047;-79
2022/02/04 06:38:34;;;;;;;6.90;2.60;;;;;;;9.71;78.69;101355.16;5017534;28;20493;-78
2022/02/04 06:41:02;;;;;;;8.15;4.07;;;;;;;9.70;78.37;101356.88;5046200;28;20459;-78
2022/02/04 06:43:30;;;;;;;11.02;3.08;;;;;;;9.74;77.66;101352.56;5031273;28;20426;-79
2022/02/04 06:46:00;;;;;;;10.57;4.22;;;;;;;9.79;77.66;101351.84;5047061;28;20029;-79
2022/02/04 06:48:28;;;;;;;12.23;3.97;;;;;;;9.82;77.55;101351.97;5031955;28;20067;-80
2022/02/04 06:50:56;;;;;;;10.73;3.40;;;;;;;9.88;77.02;101361.78;5021556;28;20121;-79
2022/02/04 06:53:23;;;;;;;11.50;3.47;;;;;;;9.93;77.26;101352.25;5029464;28;20042;-79
2022/02/04 06:55:51;;;;;;;13.27;3.63;;;;;;;10.04;77.45;101376.28;5029508;28;20052;-78
2022/02/04 06:58:19;;;;;;;12.88;2.78;;;;;;;10.11;77.59;101365.06;5058755;28;20485;-79
2022/02/04 07:00:46;;;;;;;7.38;3.03;;;;;;;10.13;77.28;101365.97;5029688;28;20061;-79
2022/02/04 07:03:15;;;;;;;6.70;1.88;;;;;;;10.17;76.81;101387.25;5029414;28;20046;-79
2022/02/04 07:05:54;;;;;;;11.13;2.45;;;;;;;10.25;76.77;101406.81;5030416;28;20544;-79
2022/02/04 07:08:26;;;;;;;9.02;3.50;;;;;;;10.26;77.09;101429.69;5037980;28;20047;-79
2022/02/04 07:11:07;;;;;;;8.45;3.03;;;;;;;10.07;77.95;101430.00;5037130;28;20057;-77
2022/02/04 07:13:46;;;;;;;14.93;4.35;;;;;;;9.74;78.93;101439.56;5037041;28;20122;-78
2022/02/04 07:16:30;;;;;;;27.70;13.95;;;;;;;9.59;79.96;101426.81;5029993;28;20037;-77
2022/02/04 07:21:44;;;;;;;20.40;9.95;;;;;;;9.51;80.91;101439.81;5027544;28;20366;-77
2022/02/04 07:24:12;;;;;;;16.30;9.65;;;;;;;9.49;81.16;101437.94;5030760;28;20191;-78
2022/02/04 07:26:40;;;;;;;20.00;12.23;;;;;;;9.47;81.27;101437.91;5029595;28;20037;-78
2022/02/04 07:29:08;;;;;;;17.92;7.43;;;;;;;9.46;81.68;101436.09;5049623;28;20137;-79
2022/02/04 07:31:39;;;;;;;20.42;8.45;;;;;;;9.52;81.67;101427.47;5033804;28;20048;-78
2022/02/04 07:34:16;;;;;;;13.70;6.85;;;;;;;9.53;82.00;101440.72;5035064;28;20045;-79
2022/02/04 07:42:12;;;;;;;;;;;;;;;9.71;82.08;101437.75;5038867;28;20156;-79
2022/02/04 07:44:40;;;;;;;23.48;10.93;;;;;;;9.77;81.39;101437.03;5029281;28;19925;-80
2022/02/04 07:47:08;;;;;;;24.38;12.90;;;;;;;9.84;81.42;101454.84;5030142;28;20112;-79
2022/02/04 07:49:38;;;;;;;16.38;6.28;;;;;;;9.90;81.32;101450.63;5046979;28;20113;-78
2022/02/04 07:52:06;;;;;;;17.05;8.48;;;;;;;9.87;80.53;101455.81;5042791;28;20037;-79
2022/02/04 07:54:34;;;;;;;12.43;5.32;;;;;;;9.89;80.53;101454.13;5033724;28;20524;-78
2022/02/04 07:57:02;;;;;;;11.90;4.25;;;;;;;9.92;80.29;101463.84;5038148;28;20037;-77
2022/02/04 07:59:30;;;;;;;11.73;4.60;;;;;;;9.94;80.07;101462.16;5030067;28;20063;-79
2022/02/04 08:01:57;;;;;;;10.32;3.80;;;;;;;9.95;79.97;101478.03;5043104;28;20034;-79
2022/02/04 08:04:29;;;;;;;12.98;5.47;;;;;;;10.02;79.98;101481.75;5037900;28;20046;-79
2022/02/04 08:07:06;;;;;;;13.82;4.93;;;;;;;10.08;80.10;101470.47;5029594;28;20049;-80
2022/02/04 08:09:42;;;;;;;12.07;3.33;;;;;;;10.09;79.52;101467.88;5071901;28;20048;-80
2022/02/04 08:12:27;;;;;;;9.75;2.28;;;;;;;10.10;78.64;101490.78;5060518;28;20044;-81
2022/02/04 08:18:00;;;;;;;7.82;4.43;;;;;;;10.14;78.22;101475.91;5043602;28;20392;-80
2022/02/04 08:54:04;;;;;;;;;;;;;;;10.66;73.85;101492.38;5026075;28;20042;-80
2022/02/04 08:59:33;;;;;;;10.05;4.10;;;;;;;10.65;74.06;101508.19;5025275;28;20122;-80
2022/02/04 09:02:06;;;;;;;10.25;3.75;;;;;;;10.64;74.16;101522.22;5028633;28;20067;-79
2022/02/04 09:04:49;;;;;;;14.38;3.90;;;;;;;10.61;74.00;101528.34;5061405;28;20124;-79
2022/02/04 09:07:19;;;;;;;14.80;7.15;;;;;;;10.57;73.39;101523.81;5060942;28;20073;-79
2022/02/04 09:09:53;;;;;;;8.68;3.63;;;;;;;10.55;73.08;101529.91;5048314;28;20404;-80
2022/02/04 09:18:32;;;;;;;8.93;3.60;;;;;;;10.58;72.29;101515.03;5027159;28;20092;-80
2022/02/04 09:23:40;;;;;;;12.80;4.35;;;;;;;10.64;70.98;101543.34;5024656;28;20184;-78
2022/02/04 09:26:09;;;;;;;12.77;3.17;;;;;;;10.67;70.66;101517.94;5028177;28;20180;-78
2022/02/04 09:28:38;;;;;;;14.65;2.88;;;;;;;10.70;70.50;101531.22;5032054;28;20421;-78
2022/02/04 09:31:06;;;;;;;10.05;3.00;;;;;;;10.70;70.45;101527.69;5047235;28;20071;-78
2022/02/04 09:33:34;;;;;;;11.80;4.50;;;;;;;10.72;70.24;101533.91;5027952;28;20045;-77
2022/02/04 09:36:02;;;;;;;12.73;3.78;;;;;;;10.77;69.57;101525.25;5026850;28;20050;-78
2022/02/04 09:38:30;;;;;;;6.40;2.85;;;;;;;10.84;69.03;101501.63;5027306;28;20045;-78
2022/02/04 09:40:57;;;;;;;5.10;2.08;;;;;;;10.86;67.93;101508.75;5027949;28;20037;-78
2022/02/04 09:43:25;;;;;;;5.93;2.97;;;;;;;10.91;68.69;101507.13;5027889;28;20649;-78
2022/02/04 09:45:54;;;;;;;7.38;2.50;;;;;;;10.97;68.89;101514.31;5027016;28;20041;-78
2022/02/04 09:48:22;;;;;;;10.23;3.20;;;;;;;10.97;67.47;101502.00;5043067;28;20045;-77
2022/02/04 09:50:53;;;;;;;8.98;3.10;;;;;;;10.94;67.18;101503.69;5027583;28;20037;-78
2022/02/04 10:15:51;;;;;;;12.35;3.75;;;;;;;11.03;64.72;101473.09;5044274;28;20047;-78
2022/02/04 10:18:30;;;;;;;4.10;1.85;;;;;;;10.96;62.48;101481.72;5051074;28;20063;-78
2022/02/04 10:21:05;;;;;;;9.68;3.75;;;;;;;11.03;62.85;101483.66;5033998;28;20044;-77
2022/02/04 10:23:50;;;;;;;9.93;3.33;;;;;;;11.14;63.84;101481.31;5032252;28;20037;-77
2022/02/04 10:26:19;;;;;;;9.90;3.80;;;;;;;11.19;63.15;101470.00;5025931;28;20053;-78
2022/02/04 10:28:49;;;;;;;10.50;3.45;;;;;;;11.15;62.01;101465.50;5003649;28;20045;-77
2022/02/04 10:31:20;;;;;;;7.65;2.85;;;;;;;11.13;61.82;101474.22;5030112;28;20121;-78
2022/02/04 10:34:13;;;;;;;9.38;3.00;;;;;;;11.12;60.49;101465.41;5028715;28;20088;-79
2022/02/04 10:36:50;;;;;;;11.77;2.72;;;;;;;11.25;61.33;101458.66;5065022;28;20048;-77
2022/02/04 10:39:38;;;;;;;6.50;2.10;;;;;;;11.35;60.15;101463.34;5032364;28;20421;-78
2022/02/04 10:42:31;;;;;;;7.13;2.35;;;;;;;11.25;59.34;101463.06;5029469;28;20069;-79
2022/02/04 10:45:20;;;;;;;7.78;2.17;;;;;;;11.49;60.29;101469.81;5040620;28;20065;-79
2022/02/04 10:48:07;;;;;;;7.45;2.28;;;;;;;11.56;59.27;101468.19;5039463;28;20052;-78
2022/02/04 10:54:03;;;;;;;5.20;1.65;;;;;;;11.42;60.04;101469.66;5030500;28;20072;-77
2022/02/04 11:05:03;;;;;;;8.07;2.88;;;;;;;12.23;60.88;101459.09;5047655;28;20057;-78
2022/02/04 11:10:32;;;;;;;6.80;3.67;;;;;;;12.25;58.65;101458.28;5059763;28;20504;-78
2022/02/04 11:36:01;;;;;;;8.63;2.58;;;;;;;12.17;56.83;101436.06;5075108;28;20627;-78
2022/02/04 11:52:43;;;;;;;3.63;1.80;;;;;;;11.54;57.52;101470.84;5044969;28;20123;-77
2022/02/04 11:55:32;;;;;;;6.60;3.25;;;;;;;11.58;57.53;101485.00;5031709;28;20065;-77
2022/02/04 11:58:04;;;;;;;7.93;2.35;;;;;;;11.55;57.42;101487.59;5049045;28;20041;-78
2022/02/04 12:00:40;;;;;;;8.88;4.50;;;;;;;11.43;56.19;101476.69;5045361;28;20071;-78
2022/02/04 12:03:28;;;;;;;8.25;2.60;;;;;;;11.42;54.95;101494.31;5041741;28;20050;-78
2022/02/04 12:05:56;;;;;;;6.40;2.05;;;;;;;11.42;55.26;101499.59;5054721;28;20124;-79
2022/02/04 12:08:26;;;;;;;7.05;2.78;;;;;;;11.42;55.99;101522.53;5047646;28;20402;-78
2022/02/04 12:10:58;;;;;;;6.45;1.85;;;;;;;11.41;55.34;101526.91;5037828;28;20052;-78
2022/02/04 12:13:28;;;;;;;9.65;4.53;;;;;;;11.43;56.06;101529.56;5026892;28;20771;-78
2022/02/04 12:16:02;;;;;;;6.60;3.20;;;;;;;11.53;56.24;101518.38;5029229;28;20052;-79
2022/02/04 12:19:09;;;;;;;20.63;4.30;;;;;;;11.53;56.38;101521.03;5028455;28;20080;-79
2022/02/04 12:21:51;;;;;;;5.97;2.30;;;;;;;11.49;56.28;101513.88;5041965;28;20052;-78
2022/02/04 12:24:36;;;;;;;8.57;2.60;;;;;;;11.46;56.06;101508.50;5027786;28;20053;-78
2022/02/04 12:27:34;;;;;;;6.25;2.28;;;;;;;11.43;55.36;101492.56;5029043;28;20095;-79
2022/02/04 12:30:40;;;;;;;8.27;2.83;;;;;;;11.51;56.17;101498.94;5053940;28;20033;-78
2022/02/04 12:33:07;;;;;;;5.10;2.13;;;;;;;11.47;55.75;101497.09;5066202;28;20409;-77
2022/02/04 12:35:39;;;;;;;5.65;2.00;;;;;;;11.58;55.82;101491.19;5063899;28;20065;-78
2022/02/04 12:38:06;;;;;;;6.20;2.05;;;;;;;11.69;54.82;101502.00;5063395;28;20063;-79
2022/02/04 12:40:34;;;;;;;3.78;2.47;;;;;;;11.84;54.70;101493.56;5047896;28;20132;-77
2022/02/04 12:43:02;;;;;;;7.47;3.30;;;;;;;11.96;54.93;101500.00;5047667;28;20554;-77
2022/02/04 12:45:31;;;;;;;4.07;1.90;;;;;;;12.01;53.40;101499.22;5047737;28;20114;-77
2022/02/04 12:48:09;;;;;;;6.55;2.33;;;;;;;12.07;53.50;101494.97;5064051;28;20072;-76
2022/02/04 12:50:40;;;;;;;7.10;2.40;;;;;;;12.15;53.66;101514.53;5057075;28;20044;-79
2022/02/04 12:53:09;;;;;;;5.97;1.67;;;;;;;12.26;53.36;101501.53;5043496;28;20535;-77
2022/02/04 12:55:58;;;;;;;8.20;3.50;;;;;;;12.26;53.98;101499.78;5045674;28;20099;-74
2022/02/04 13:07:38;;;;;;;10.27;3.60;;;;;;;11.61;53.30;101515.94;5021690;28;20561;-76
2022/02/04 13:10:07;;;;;;;8.02;2.38;;;;;;;11.42;52.95;101509.31;5038730;28;21027;-78
2022/02/04 13:12:50;;;;;;;9.93;4.22;;;;;;;11.26;52.99;101509.78;5046975;28;20460;-77
2022/02/04 13:15:18;;;;;;;9.85;4.45;;;;;;;11.17;53.16;101511.34;5048187;28;20475;-77
2022/02/04 13:17:48;;;;;;;12.88;4.40;;;;;;;11.28;53.74;101524.84;5045254;28;20052;-77
2022/02/04 13:20:21;;;;;;;19.88;8.32;;;;;;;11.37;53.75;101509.19;5047458;28;20809;-78
2022/02/04 13:22:50;;;;;;;14.35;4.72;;;;;;;11.38;54.23;101528.59;5062454;28;20058;-78
2022/02/04 13:25:20;;;;;;;11.45;4.75;;;;;;;11.31;54.46;101519.59;5053258;28;20041;-78
2022/02/04 13:28:06;;;;;;;12.32;6.35;;;;;;;11.12;53.41;101536.75;5046670;28;20126;-77
2022/02/04 13:30:36;;;;;;;17.35;7.28;;;;;;;11.04;53.59;101540.94;5012966;28;20519;-78
2022/02/04 13:33:16;;;;;;;11.30;4.80;;;;;;;11.01;53.61;101550.53;5060067;28;20048;-78
2022/02/04 13:35:52;;;;;;;11.32;5.28;;;;;;;11.04;53.85;101553.25;5052796;28;20128;-79
2022/02/04 13:38:28;;;;;;;12.40;4.25;;;;;;;11.03;53.40;101549.72;5062949;28;20049;-78
2022/02/04 13:41:06;;;;;;;17.75;7.10;;;;;;;11.08;54.01;101550.75;5047111;28;20030;-76
2022/02/04 13:43:42;;;;;;;8.90;4.75;;;;;;;11.16;54.08;101550.91;5025836;28;20041;-77
2022/02/04 13:46:38;;;;;;;4.40;2.53;;;;;;;11.19;54.10;101546.63;5012831;27;20513;-75
2022/02/04 13:49:24;;;;;;;11.65;4.15;;;;;;;11.25;54.73;101545.00;4991329;28;20046;-75
2022/02/04 13:51:59;;;;;;;9.88;3.88;;;;;;;11.25;55.01;101545.00;5004642;28;20061;-75
2022/02/04 13:54:42;;;;;;;8.65;3.05;;;;;;;11.25;55.36;101530.03;5004793;28;20129;-76
2022/02/04 13:57:25;;;;;;;9.50;3.22;;;;;;;11.25;55.44;101539.69;5001013;28;20054;-74
2022/02/04 14:00:04;;;;;;;6.95;3.17;;;;;;;11.19;55.71;101541.34;4985883;28;20050;-75
2022/02/04 14:02:40;;;;;;;6.65;2.53;;;;;;;11.08;55.99;101539.28;5005694;28;20104;-74
2022/02/04 14:05:09;;;;;;;9.73;3.22;;;;;;;11.01;55.77;101543.50;5014010;28;20547;-74
2022/02/04 14:07:44;;;;;;;7.65;3.60;;;;;;;10.96;55.79;101563.59;4989255;28;20128;-75
2022/02/04 14:10:27;;;;;;;9.10;2.97;;;;;;;10.91;55.84;101565.25;4995665;28;20046;-75
2022/02/04 14:13:07;;;;;;;8.30;3.78;;;;;;;10.89;55.08;101561.69;5004829;28;20042;-75
2022/02/04 14:15:36;;;;;;;7.05;3.25;;;;;;;10.84;54.60;101565.94;4999341;28;20855;-75
2022/02/04 14:18:08;;;;;;;12.20;4.60;;;;;;;10.83;55.52;101561.50;5001409;28;20048;-77
2022/02/04 14:20:37;;;;;;;7.55;3.50;;;;;;;10.87;55.28;101573.94;5004528;28;20486;-75
2022/02/04 14:23:05;;;;;;;11.77;4.65;;;;;;;10.88;55.66;101567.81;4996471;28;20052;-76
2022/02/04 14:25:43;;;;;;;11.45;5.93;;;;;;;10.96;56.13;101581.25;5005091;28;20044;-76
2022/02/04 14:28:14;;;;;;;8.50;3.10;;;;;;;10.98;56.68;101569.84;4988945;28;20058;-76
2022/02/04 14:30:42;;;;;;;12.85;4.18;;;;;;;11.01;56.69;101587.53;4985055;28;20398;-75
2022/02/04 14:33:19;;;;;;;8.52;3.20;;;;;;;11.00;56.29;101576.06;4999535;28;20608;-76
2022/02/04 14:36:00;;;;;;;11.30;3.85;;;;;;;10.99;56.08;101594.50;4999651;28;20658;-76
2022/02/04 14:49:52;;;;;;;9.60;3.70;;;;;;;10.70;56.15;101605.16;4997495;28;20053;-75
2022/02/04 14:52:33;;;;;;;5.45;2.88;;;;;;;10.71;56.16;101604.31;5006153;28;20054;-75
2022/02/04 15:03:30;;;;;;;10.13;4.00;;;;;;;10.69;57.51;101613.06;5004691;28;20456;-76
2022/02/04 15:06:03;;;;;;;6.05;2.65;;;;;;;10.71;57.48;101616.63;5006789;28;20045;-76
2022/02/04 15:08:34;;;;;;;9.43;3.67;;;;;;;10.71;57.32;101624.53;5007385;28;20502;-76
2022/02/04 15:11:04;;;;;;;14.52;4.15;;;;;;;10.73;57.47;101618.47;5006919;28;20061;-75
2022/02/04 15:13:35;;;;;;;5.57;3.10;;;;;;;10.75;57.46;101610.59;5006071;28;20046;-76
2022/02/04 15:16:07;;;;;;;9.40;2.97;;;;;;;10.75;57.03;101618.50;5008437;28;20069;-75
2022/02/04 15:18:35;;;;;;;9.40;4.97;;;;;;;10.74;57.48;101622.91;5017704;28;20445;-75
2022/02/04 15:21:10;;;;;;;6.88;3.17;;;;;;;10.71;57.40;101619.25;5005393;28;20072;-75
2022/02/04 15:23:39;;;;;;;12.00;3.67;;;;;;;10.67;57.63;101610.38;5007023;28;20372;-75
2022/02/04 15:26:09;;;;;;;6.28;3.22;;;;;;;10.66;57.60;101627.06;5018853;28;20053;-76
2022/02/04 15:28:42;;;;;;;4.90;2.58;;;;;;;10.65;57.31;101627.00;5007509;28;20073;-77
2022/02/04 15:31:18;;;;;;;8.40;2.50;;;;;;;10.59;57.50;101618.91;5005791;28;20053;-76
2022/02/04 15:33:48;;;;;;;11.07;5.70;;;;;;;10.59;57.74;101634.75;5003302;28;20053;-77
2022/02/04 15:36:24;;;;;;;10.98;4.00;;;;;;;10.62;57.61;101622.53;5004355;28;20189;-74
2022/02/04 15:38:52;;;;;;;10.57;3.78;;;;;;;10.62;57.83;101637.50;5002995;28;20046;-75
2022/02/04 15:41:21;;;;;;;15.48;3.13;;;;;;;10.62;57.80;101634.84;5004707;28;20054;-75
2022/02/04 15:43:54;;;;;;;9.85;3.83;;;;;;;10.63;58.30;101634.88;5005661;28;20597;-76
2022/02/04 15:46:46;;;;;;;8.18;3.55;;;;;;;10.65;58.16;101640.19;5018195;28;20050;-75
2022/02/04 15:49:46;;;;;;;7.43;3.58;;;;;;;10.62;58.18;101640.13;5013695;28;20046;-75
2022/02/04 15:57:56;;;;;;;9.07;4.32;;;;;;;10.60;58.58;101645.34;4960867;28;20405;-74
2022/02/04 16:03:32;;;;;;;11.48;5.13;;;;;;;10.55;58.67;101652.25;4964456;28;20180;-74
2022/02/04 16:06:00;;;;;;;10.30;3.03;;;;;;;10.56;58.40;101647.88;5004343;28;20046;-75
2022/02/04 16:08:29;;;;;;;8.68;3.20;;;;;;;10.56;58.30;101656.69;5005373;28;20552;-75
2022/02/04 16:11:00;;;;;;;15.38;4.35;;;;;;;10.56;58.13;101661.06;5004185;28;20034;-74
2022/02/04 16:13:42;;;;;;;7.38;3.80;;;;;;;10.56;58.35;101663.72;5004409;28;20038;-74
2022/02/04 16:16:25;;;;;;;7.60;4.00;;;;;;;10.55;58.20;101661.91;5006629;28;20069;-75
2022/02/04 16:21:49;;;;;;;5.72;3.40;;;;;;;10.48;58.76;101673.13;5004193;28;20674;-76
2022/02/04 16:28:37;;;;;;;5.13;2.40;;;;;;;10.37;58.55;101676.31;5003385;28;20064;-75
2022/02/04 16:30:00;;;;;;;7.13;3.13;;;;;;;10.27;57.98;101679.53;5003617;28;20058;-76
2022/02/04 16:32:28;;;;;;;6.18;2.83;;;;;;;10.26;57.78;101672.47;5005417;28;20053;-74
2022/02/04 16:34:56;;;;;;;6.43;3.08;;;;;;;10.27;58.21;101671.63;5007024;28;20059;-75
2022/02/04 16:37:31;;;;;;;8.60;3.70;;;;;;;10.27;58.01;101682.19;5004932;28;20046;-75
2022/02/04 16:40:04;;;;;;;11.93;4.38;;;;;;;10.27;57.78;101694.47;5005388;28;20046;-75
2022/02/04 16:42:33;;;;;;;3.92;2.30;;;;;;;10.22;57.80;101696.97;5004826;28;20049;-75
2022/02/04 16:45:00;;;;;;;7.22;3.10;;;;;;;10.21;57.72;101692.53;5006048;28;20438;-75
2022/02/04 16:47:28;;;;;;;12.63;3.53;;;;;;;10.22;57.67;101696.97;5004658;28;20041;-76
2022/02/04 16:49:57;;;;;;;8.95;2.90;;;;;;;10.23;57.84;101692.59;4989451;28;20144;-75
2022/02/04 16:52:25;;;;;;;7.03;2.88;;;;;;;10.21;57.63;101700.47;5014966;28;20056;-75
2022/02/04 16:54:53;;;;;;;5.40;3.00;;;;;;;10.20;57.80;101703.03;5004959;28;20453;-76
2022/02/04 16:57:24;;;;;;;6.60;3.05;;;;;;;10.19;57.71;101703.88;5004887;28;20063;-75
2022/02/04 16:59:53;;;;;;;6.22;3.20;;;;;;;10.13;57.82;101703.66;5005008;28;20056;-75
2022/02/04 17:02:20;;;;;;;7.82;2.63;;;;;;;10.12;57.75;101720.31;5006417;28;20050;-76
2022/02/04 17:04:49;;;;;;;10.70;4.70;;;;;;;10.15;58.34;101728.34;5005836;28;20042;-75
2022/02/04 17:07:23;;;;;;;8.77;3.95;;;;;;;10.16;58.18;101724.88;5000106;28;20050;-74
2022/02/04 17:09:52;;;;;;;10.77;3.80;;;;;;;10.15;58.04;101716.06;5003223;28;20038;-76